Wetterdaten der Wetterstation 31177 Harsum

Letzte Wetterlage 28.02.2015 14:38
Wetterdiagramm
Tabellarische Darstellung
Datum Temperatur Windchill Feuchte Luftdruck Windrichtung Windstärke Niederschlag
28.02.2015 14:38 10,6 °C 10,6 °C 34 % 1015,1 hPa 203 1.6 0,00 mm
28.02.2015 14:17 10,5 °C 10,5 °C 37 % 1015,1 hPa 248 1.6 0,00 mm
28.02.2015 13:56 10,5 °C 10,5 °C 36 % 1016,1 hPa 225 1.6 0,00 mm
28.02.2015 13:35 10,7 °C 10,7 °C 39 % 1016,1 hPa 180 1.7 0,00 mm
28.02.2015 12:55 8,0 °C 8,0 °C 48 % 1016,4 hPa 68 0.8 0,00 mm
28.02.2015 12:34 7,4 °C 7,4 °C 52 % 1017,1 hPa 225 1.5 0,00 mm
28.02.2015 11:52 7,1 °C 5,6 °C 52 % 1017,1 hPa 225 2.3 0,00 mm
28.02.2015 11:32 7,9 °C 7,9 °C 55 % 1017,1 hPa 225 1.8 0,00 mm
28.02.2015 10:51 6,8 °C 5,8 °C 64 % 1017,4 hPa 248 2.1 0,00 mm
28.02.2015 10:30 3,8 °C 3,8 °C 78 % 1017,1 hPa 180 1.2 0,00 mm
28.02.2015 10:09 3,2 °C 3,2 °C 81 % 1017,1 hPa 180 1.6 0,00 mm
28.02.2015 09:48 2,9 °C 2,9 °C 81 % 1017,1 hPa 180 1.3 0,00 mm
28.02.2015 09:27 3,1 °C 3,1 °C 80 % 1017,4 hPa 225 0.9 0,00 mm
28.02.2015 09:07 3,5 °C 3,5 °C 98 % 1017,1 hPa 248 0.7 0,00 mm
28.02.2015 08:46 1,3 °C 1,3 °C 98 % 1017,1 hPa 180 0.9 0,00 mm
28.02.2015 08:25 0,8 °C 0,8 °C 98 % 1017,1 hPa 248 0.7 0,00 mm
28.02.2015 08:05 0,6 °C 0,6 °C 98 % 1017,1 hPa 225 0.8 0,00 mm
28.02.2015 07:44 0,5 °C 0,5 °C 98 % 1017,1 hPa 270 0.5 0,00 mm
28.02.2015 07:23 0,6 °C 0,6 °C 98 % 1017,1 hPa 225 0.5 0,00 mm
28.02.2015 07:03 0,6 °C 0,6 °C 98 % 1017,1 hPa 180 0.8 0,00 mm
28.02.2015 06:42 0,4 °C 0,4 °C 97 % 1017,1 hPa 225 0.7 0,00 mm
28.02.2015 06:01 0,1 °C 0,1 °C 94 % 1017,1 hPa 225 0.7 0,00 mm
28.02.2015 05:40 0,1 °C 0,1 °C 93 % 1017,1 hPa 248 0.0 0,00 mm
28.02.2015 05:20 0,6 °C 0,6 °C 94 % 1017,1 hPa 225 0.0 0,00 mm
28.02.2015 04:59 0,6 °C 0,6 °C 94 % 1016,1 hPa 225 0.0 0,00 mm
Neue Wetterwarnung

Neue Niederschlagsmeldung
Neue Meldung
Regen Liveticker
    sehr starker Regen/Gewitter
    starker Regen/Gewitter
    mäßiger bis starker Regen
    mäßiger Regen
    leichter bis mäßiger Regen
    kein Regen